createdAt,value
2022-10-30T00:01:03.866Z,15.13
2022-10-30T00:03:30.796Z,13.37
2022-10-30T00:05:57.908Z,13.87
2022-10-30T00:08:28.186Z,15.80
2022-10-30T00:10:55.389Z,13.77
2022-10-30T00:13:22.719Z,12.80
2022-10-30T00:15:54.083Z,13.20
2022-10-30T00:18:21.207Z,13.20
2022-10-30T00:20:48.738Z,11.63
2022-10-30T00:23:15.801Z,13.80
2022-10-30T00:25:42.650Z,12.50
2022-10-30T00:28:09.401Z,11.70
2022-10-30T00:30:36.860Z,11.30
2022-10-30T00:33:04.543Z,14.33
2022-10-30T00:35:31.935Z,13.70
2022-10-30T00:38:00.890Z,13.70
2022-10-30T00:40:28.350Z,12.27
2022-10-30T00:42:55.582Z,12.30
2022-10-30T00:45:22.384Z,12.90
2022-10-30T00:47:52.280Z,14.00
2022-10-30T00:53:05.359Z,13.13
2022-10-30T00:55:35.438Z,11.20
2022-10-30T00:58:07.750Z,11.90
2022-10-30T01:00:37.054Z,12.20
2022-10-30T01:03:05.184Z,12.60
2022-10-30T01:05:33.679Z,12.30
2022-10-30T01:08:01.138Z,11.57
2022-10-30T01:10:28.333Z,12.60
2022-10-30T01:12:58.508Z,13.90
2022-10-30T01:15:35.760Z,11.87
2022-10-30T01:18:25.674Z,12.67
2022-10-30T01:21:11.930Z,11.60
2022-10-30T01:23:59.970Z,11.30
2022-10-30T01:26:30.275Z,11.63
2022-10-30T01:29:02.871Z,10.40
2022-10-30T01:31:44.073Z,11.83
2022-10-30T01:34:32.074Z,11.20
2022-10-30T01:37:03.763Z,11.50
2022-10-30T01:39:35.708Z,11.20
2022-10-30T01:42:28.083Z,11.60
2022-10-30T01:44:54.917Z,11.23
2022-10-30T01:47:42.256Z,11.00
2022-10-30T01:50:24.439Z,10.90
2022-10-30T01:53:13.797Z,11.23
2022-10-30T01:55:46.397Z,12.30
2022-10-30T01:58:18.959Z,11.33
2022-10-30T02:00:52.641Z,11.23
2022-10-30T02:03:19.831Z,12.50
2022-10-30T02:05:50.513Z,11.30
2022-10-30T02:08:17.899Z,11.77
2022-10-30T02:10:47.807Z,11.40
2022-10-30T02:13:14.880Z,9.97
2022-10-30T02:15:42.873Z,10.57
2022-10-30T02:18:09.649Z,11.27
2022-10-30T02:20:37.494Z,11.40
2022-10-30T02:23:05.012Z,10.77
2022-10-30T02:25:32.534Z,10.27
2022-10-30T02:27:59.814Z,10.10
2022-10-30T02:30:26.997Z,10.30
2022-10-30T02:32:54.128Z,10.43
2022-10-30T02:35:20.953Z,9.97
2022-10-30T02:37:49.015Z,10.40
2022-10-30T02:40:15.819Z,10.87
2022-10-30T02:42:43.019Z,9.50
2022-10-30T02:45:10.228Z,10.40
2022-10-30T02:47:37.035Z,10.70
2022-10-30T02:50:04.133Z,9.13
2022-10-30T02:52:31.129Z,9.60
2022-10-30T02:54:57.869Z,10.83
2022-10-30T02:57:24.679Z,9.57
2022-10-30T02:59:51.404Z,10.37
2022-10-30T03:02:18.191Z,9.70
2022-10-30T03:04:44.954Z,10.00
2022-10-30T03:07:12.919Z,10.30
2022-10-30T03:09:39.698Z,9.67
2022-10-30T03:12:06.710Z,9.90
2022-10-30T03:14:33.495Z,9.40
2022-10-30T03:17:00.224Z,9.97
2022-10-30T03:19:27.392Z,10.70
2022-10-30T03:21:54.532Z,9.40
2022-10-30T03:24:21.349Z,9.40
2022-10-30T03:26:48.301Z,10.80
2022-10-30T03:29:15.488Z,10.47
2022-10-30T03:31:42.249Z,9.60
2022-10-30T03:34:08.977Z,9.53
2022-10-30T03:36:35.898Z,9.80
2022-10-30T03:39:03.035Z,9.47
2022-10-30T03:41:29.901Z,9.90
2022-10-30T03:43:56.602Z,9.80
2022-10-30T03:46:23.714Z,9.67
2022-10-30T03:48:50.903Z,9.23
2022-10-30T03:51:17.814Z,9.63
2022-10-30T03:53:44.550Z,9.63
2022-10-30T03:56:11.434Z,9.23
2022-10-30T03:58:38.558Z,9.33
2022-10-30T04:01:06.995Z,9.60
2022-10-30T04:03:34.376Z,9.37
2022-10-30T04:06:01.292Z,8.97
2022-10-30T04:08:28.146Z,8.77
2022-10-30T04:10:55.049Z,8.83
2022-10-30T04:13:22.257Z,9.10
2022-10-30T04:15:55.992Z,8.90
2022-10-30T04:18:24.697Z,9.70
2022-10-30T04:20:51.888Z,9.40
2022-10-30T04:23:19.929Z,9.87
2022-10-30T04:25:47.323Z,8.97
2022-10-30T04:28:14.303Z,9.07
2022-10-30T04:30:41.191Z,10.57
2022-10-30T04:33:12.219Z,9.20
2022-10-30T04:35:39.932Z,10.10
2022-10-30T04:38:11.949Z,9.43
2022-10-30T04:40:40.548Z,9.30
2022-10-30T04:43:08.400Z,9.87
2022-10-30T04:45:35.997Z,9.00
2022-10-30T04:48:15.062Z,8.87
2022-10-30T04:50:43.377Z,9.10
2022-10-30T04:53:17.763Z,9.07
2022-10-30T04:55:45.041Z,9.10
2022-10-30T04:58:12.792Z,9.20
2022-10-30T05:00:39.976Z,9.07
2022-10-30T05:03:07.135Z,8.83
2022-10-30T05:05:34.326Z,8.73
2022-10-30T05:08:01.335Z,8.47
2022-10-30T05:10:28.435Z,9.70
2022-10-30T05:12:55.631Z,8.67
2022-10-30T05:15:22.420Z,9.00
2022-10-30T05:17:56.411Z,9.77
2022-10-30T05:20:23.955Z,9.40
2022-10-30T05:22:58.709Z,9.53
2022-10-30T05:25:26.514Z,11.20
2022-10-30T05:28:04.519Z,9.17
2022-10-30T05:30:33.063Z,9.40
2022-10-30T05:33:08.008Z,8.30
2022-10-30T05:35:35.692Z,9.00
2022-10-30T05:38:05.682Z,9.57
2022-10-30T05:40:33.871Z,9.20
2022-10-30T05:43:01.336Z,9.40
2022-10-30T05:45:28.393Z,8.97
2022-10-30T05:48:06.681Z,9.40
2022-10-30T05:50:34.295Z,10.03
2022-10-30T05:53:03.839Z,9.07
2022-10-30T05:55:30.880Z,9.63
2022-10-30T05:57:59.528Z,8.23
2022-10-30T06:00:28.633Z,10.43
2022-10-30T06:03:03.172Z,10.27
2022-10-30T06:05:31.581Z,9.93
2022-10-30T06:07:58.650Z,8.90
2022-10-30T06:10:26.537Z,9.30
2022-10-30T06:12:58.355Z,9.33
2022-10-30T06:15:25.874Z,8.97
2022-10-30T06:17:53.047Z,9.57
2022-10-30T06:20:22.131Z,9.70
2022-10-30T06:23:06.263Z,10.60
2022-10-30T06:25:40.365Z,11.20
2022-10-30T06:28:07.751Z,9.60
2022-10-30T06:30:34.615Z,10.17
2022-10-30T06:33:03.419Z,10.63
2022-10-30T06:35:30.772Z,9.40
2022-10-30T06:38:00.188Z,10.43
2022-10-30T06:40:27.794Z,9.00
2022-10-30T06:42:55.164Z,9.60
2022-10-30T06:45:23.713Z,10.00
2022-10-30T06:47:50.665Z,10.63
2022-10-30T06:50:20.156Z,9.93
2022-10-30T06:52:48.255Z,10.00
2022-10-30T06:55:15.441Z,10.00
2022-10-30T06:57:42.724Z,9.00
2022-10-30T07:00:10.269Z,9.70
2022-10-30T07:02:37.398Z,10.60
2022-10-30T07:05:04.884Z,9.70
2022-10-30T07:07:31.772Z,11.17
2022-10-30T07:09:58.484Z,10.43
2022-10-30T07:12:25.670Z,11.40
2022-10-30T07:14:52.396Z,10.97
2022-10-30T07:17:19.594Z,11.37
2022-10-30T07:19:46.713Z,10.40
2022-10-30T07:22:13.858Z,10.93
2022-10-30T07:24:41.077Z,9.70
2022-10-30T07:27:08.180Z,10.20
2022-10-30T07:29:34.930Z,11.67
2022-10-30T07:32:03.311Z,10.47
2022-10-30T07:34:30.820Z,10.33
2022-10-30T07:36:57.972Z,9.90
2022-10-30T07:39:24.964Z,8.90
2022-10-30T07:41:51.700Z,10.50
2022-10-30T07:44:18.840Z,9.80
2022-10-30T07:46:45.636Z,32.67
2022-10-30T07:49:12.364Z,56.30
2022-10-30T07:51:39.521Z,11.60
2022-10-30T07:54:06.237Z,10.07
2022-10-30T07:56:32.950Z,9.53
2022-10-30T07:58:59.679Z,9.87
2022-10-30T08:01:26.486Z,9.00
2022-10-30T08:03:53.332Z,12.33
2022-10-30T08:06:23.035Z,11.83
2022-10-30T08:08:53.110Z,10.47
2022-10-30T08:11:19.960Z,11.27
2022-10-30T08:13:46.931Z,12.63
2022-10-30T08:16:13.695Z,10.10
2022-10-30T08:18:42.535Z,8.23
2022-10-30T08:21:10.106Z,10.50
2022-10-30T08:23:37.057Z,9.90
2022-10-30T08:26:04.193Z,8.90
2022-10-30T08:28:32.914Z,10.53
2022-10-30T08:31:01.233Z,11.73
2022-10-30T08:33:28.417Z,8.70
2022-10-30T08:35:57.117Z,9.80
2022-10-30T08:38:24.143Z,10.73
2022-10-30T08:40:51.014Z,9.67
2022-10-30T08:43:17.913Z,9.00
2022-10-30T08:45:44.862Z,9.13
2022-10-30T08:48:13.898Z,11.27
2022-10-30T08:50:41.246Z,9.83
2022-10-30T08:53:13.691Z,9.30
2022-10-30T08:55:40.985Z,7.75
2022-10-30T08:58:07.840Z,7.80
2022-10-30T09:00:35.512Z,6.13
2022-10-30T09:03:02.920Z,6.90
2022-10-30T09:05:30.099Z,7.03
2022-10-30T09:08:01.697Z,5.90
2022-10-30T09:10:29.481Z,6.60
2022-10-30T09:12:57.834Z,6.50
2022-10-30T09:15:25.499Z,6.87
2022-10-30T09:18:00.136Z,6.90
2022-10-30T09:20:27.861Z,6.83
2022-10-30T09:22:55.324Z,6.80
2022-10-30T09:25:22.307Z,6.23
2022-10-30T09:27:49.156Z,6.27
2022-10-30T09:30:15.957Z,7.20
2022-10-30T09:32:42.672Z,6.10
2022-10-30T09:35:09.533Z,6.00
2022-10-30T09:37:37.528Z,6.03
2022-10-30T09:40:05.647Z,6.18
2022-10-30T09:42:50.989Z,6.10
2022-10-30T09:45:43.314Z,6.32
2022-10-30T09:48:30.494Z,7.00
2022-10-30T09:51:19.545Z,6.32
2022-10-30T09:54:05.467Z,6.32
2022-10-30T09:57:01.247Z,5.95
2022-10-30T09:59:29.185Z,6.60
2022-10-30T10:02:08.059Z,5.97
2022-10-30T10:04:43.380Z,6.10
2022-10-30T10:07:22.263Z,6.30
2022-10-30T10:09:53.460Z,6.07
2022-10-30T10:12:38.625Z,6.43
2022-10-30T10:15:31.055Z,6.40
2022-10-30T10:18:01.413Z,6.28
2022-10-30T10:20:37.045Z,6.77
2022-10-30T10:23:29.331Z,5.75
2022-10-30T10:26:00.389Z,6.00
2022-10-30T10:28:27.077Z,5.55
2022-10-30T10:31:04.932Z,5.43
2022-10-30T10:34:03.090Z,5.97
2022-10-30T10:36:46.479Z,5.43
2022-10-30T10:39:42.380Z,5.97
2022-10-30T10:42:52.686Z,5.18
2022-10-30T10:45:46.751Z,5.50
2022-10-30T10:48:34.452Z,5.35
2022-10-30T10:51:15.531Z,5.35
2022-10-30T10:53:53.011Z,6.05
2022-10-30T10:56:25.389Z,5.55
2022-10-30T10:58:58.115Z,5.45
2022-10-30T11:01:39.759Z,5.07
2022-10-30T11:04:24.226Z,5.10
2022-10-30T11:06:54.186Z,5.68
2022-10-30T11:09:22.972Z,5.70
2022-10-30T11:11:52.386Z,5.18
2022-10-30T11:14:23.838Z,5.65
2022-10-30T11:17:10.960Z,5.85
2022-10-30T11:19:37.759Z,5.75
2022-10-30T11:22:20.592Z,5.30
2022-10-30T11:24:47.384Z,5.90
2022-10-30T11:27:23.455Z,6.32
2022-10-30T11:30:01.886Z,5.53
2022-10-30T11:32:31.447Z,5.82
2022-10-30T11:35:10.137Z,5.75
2022-10-30T11:37:39.323Z,5.68
2022-10-30T11:40:12.160Z,5.80
2022-10-30T11:42:41.746Z,6.38
2022-10-30T11:45:26.689Z,5.63
2022-10-30T11:47:58.266Z,5.55
2022-10-30T11:50:30.704Z,5.75
2022-10-30T11:53:13.120Z,5.57
2022-10-30T11:55:46.048Z,5.53
2022-10-30T11:58:24.083Z,5.10
2022-10-30T12:01:06.908Z,4.90
2022-10-30T12:03:41.800Z,6.30
2022-10-30T12:06:20.472Z,5.90
2022-10-30T12:09:19.721Z,5.72
2022-10-30T12:11:47.191Z,6.47
2022-10-30T12:14:18.989Z,5.18
2022-10-30T12:16:56.935Z,5.37
2022-10-30T12:19:25.590Z,6.27
2022-10-30T12:21:54.491Z,6.33
2022-10-30T12:24:43.703Z,6.47
2022-10-30T12:27:19.676Z,6.77
2022-10-30T12:30:13.504Z,5.83
2022-10-30T12:33:06.197Z,6.90
2022-10-30T12:35:53.224Z,6.30
2022-10-30T12:38:46.492Z,6.30
2022-10-30T12:41:25.091Z,6.80
2022-10-30T12:43:59.528Z,6.23
2022-10-30T12:46:36.489Z,6.57
2022-10-30T12:49:15.234Z,25.83
2022-10-30T12:52:02.753Z,8.10
2022-10-30T12:54:48.051Z,5.40
2022-10-30T12:57:26.013Z,6.13
2022-10-30T13:00:07.521Z,6.60
2022-10-30T13:02:46.880Z,6.80
2022-10-30T13:05:23.019Z,5.73
2022-10-30T13:07:58.361Z,6.00
2022-10-30T13:10:34.191Z,6.53
2022-10-30T13:13:33.955Z,5.77
2022-10-30T13:16:06.553Z,6.17
2022-10-30T13:18:34.083Z,6.30
2022-10-30T13:21:04.264Z,5.93
2022-10-30T13:23:48.357Z,6.53
2022-10-30T13:26:39.892Z,7.77
2022-10-30T13:29:31.697Z,6.77
2022-10-30T13:32:40.638Z,6.20
2022-10-30T13:35:29.073Z,6.63
2022-10-30T13:37:59.053Z,6.63
2022-10-30T13:40:44.822Z,5.80
2022-10-30T13:43:29.875Z,7.40
2022-10-30T13:46:27.081Z,6.13
2022-10-30T13:49:06.230Z,6.50
2022-10-30T13:51:47.890Z,6.20
2022-10-30T13:54:28.519Z,7.33
2022-10-30T13:56:56.780Z,6.20
2022-10-30T13:59:36.844Z,6.50
2022-10-30T14:02:31.517Z,6.53
2022-10-30T14:05:12.890Z,6.77
2022-10-30T14:07:51.636Z,6.50
2022-10-30T14:10:48.137Z,6.50
2022-10-30T14:13:28.336Z,6.60
2022-10-30T14:16:04.557Z,6.37
2022-10-30T14:18:31.291Z,6.80
2022-10-30T14:21:11.001Z,7.07
2022-10-30T14:23:38.319Z,6.57
2022-10-30T14:26:12.715Z,6.67
2022-10-30T14:28:50.947Z,6.90
2022-10-30T14:31:20.070Z,6.90
2022-10-30T14:33:50.921Z,6.47
2022-10-30T14:36:20.590Z,6.83
2022-10-30T14:39:10.488Z,8.00
2022-10-30T14:42:05.108Z,7.87
2022-10-30T14:44:50.112Z,7.70
2022-10-30T14:47:33.359Z,6.53
2022-10-30T14:50:17.102Z,6.20
2022-10-30T14:52:59.824Z,7.53
2022-10-30T14:55:50.739Z,8.00
2022-10-30T14:58:29.413Z,7.30
2022-10-30T15:01:20.516Z,7.47
2022-10-30T15:04:22.421Z,7.87
2022-10-30T15:07:20.840Z,7.90
2022-10-30T15:10:06.793Z,11.30
2022-10-30T15:12:42.181Z,7.83
2022-10-30T15:15:15.280Z,7.83
2022-10-30T15:17:48.443Z,8.77
2022-10-30T15:20:24.847Z,8.40
2022-10-30T15:23:19.324Z,9.20
2022-10-30T15:25:52.341Z,10.47
2022-10-30T15:31:02.584Z,27.30
2022-10-30T15:33:37.803Z,22.30
2022-10-30T15:36:05.605Z,16.63
2022-10-30T15:38:32.661Z,11.20
2022-10-30T15:41:02.673Z,10.90
2022-10-30T15:43:35.553Z,11.60
2022-10-30T15:46:08.258Z,10.47
2022-10-30T15:48:35.892Z,10.70
2022-10-30T15:51:06.485Z,9.60
2022-10-30T15:53:33.139Z,11.10
2022-10-30T15:56:00.261Z,14.67
2022-10-30T15:58:27.464Z,17.00
2022-10-30T16:01:00.447Z,10.27
2022-10-30T16:03:28.542Z,9.17
2022-10-30T16:06:17.612Z,9.27
2022-10-30T16:08:46.830Z,11.47
2022-10-30T16:11:14.686Z,12.27
2022-10-30T16:13:42.528Z,11.67
2022-10-30T16:16:17.225Z,12.10
2022-10-30T16:18:44.530Z,12.50
2022-10-30T16:21:16.453Z,9.37
2022-10-30T16:23:50.291Z,10.03
2022-10-30T16:26:37.785Z,9.90
2022-10-30T16:29:21.196Z,12.77
2022-10-30T16:31:50.119Z,10.00
2022-10-30T16:34:26.454Z,10.30
2022-10-30T16:36:54.444Z,11.17
2022-10-30T16:39:21.971Z,10.20
2022-10-30T16:41:49.133Z,9.93
2022-10-30T16:44:33.528Z,9.43
2022-10-30T16:47:00.290Z,10.17
2022-10-30T16:49:31.376Z,10.80
2022-10-30T16:52:02.305Z,10.30
2022-10-30T16:54:36.553Z,9.80
2022-10-30T16:57:07.637Z,10.70
2022-10-30T16:59:38.941Z,10.27
2022-10-30T17:02:18.820Z,9.87
2022-10-30T17:04:52.466Z,10.70
2022-10-30T17:07:25.446Z,9.63
2022-10-30T17:09:55.609Z,9.23
2022-10-30T17:12:27.698Z,9.67
2022-10-30T17:15:13.075Z,9.10
2022-10-30T17:17:41.823Z,9.30
2022-10-30T17:20:21.831Z,9.83
2022-10-30T17:23:06.142Z,10.03
2022-10-30T17:25:38.583Z,11.10
2022-10-30T17:28:05.821Z,13.17
2022-10-30T17:30:35.411Z,11.60
2022-10-30T17:33:22.207Z,10.97
2022-10-30T17:35:49.432Z,9.77
2022-10-30T17:38:16.495Z,10.90
2022-10-30T17:40:43.468Z,10.73
2022-10-30T17:43:17.021Z,10.47
2022-10-30T17:45:44.467Z,11.20
2022-10-30T17:48:16.632Z,10.20
2022-10-30T17:50:44.652Z,11.80
2022-10-30T17:53:21.864Z,10.47
2022-10-30T17:55:59.698Z,11.07
2022-10-30T17:58:26.451Z,10.07
2022-10-30T18:00:53.273Z,10.27
2022-10-30T18:03:20.150Z,10.57
2022-10-30T18:05:47.567Z,10.23
2022-10-30T18:08:14.320Z,10.43
2022-10-30T18:10:41.458Z,9.83
2022-10-30T18:13:11.906Z,10.33
2022-10-30T18:15:41.224Z,9.90
2022-10-30T18:18:08.383Z,11.03
2022-10-30T18:20:35.441Z,11.23
2022-10-30T18:23:02.689Z,11.67
2022-10-30T18:25:35.867Z,12.53
2022-10-30T18:28:02.990Z,9.80
2022-10-30T18:30:30.292Z,11.47
2022-10-30T18:32:57.895Z,10.60
2022-10-30T18:35:31.399Z,10.37
2022-10-30T18:37:58.685Z,11.40
2022-10-30T18:40:26.299Z,10.77
2022-10-30T18:42:53.733Z,10.53
2022-10-30T18:45:29.631Z,11.00
2022-10-30T18:47:58.060Z,12.27
2022-10-30T18:50:25.287Z,12.93
2022-10-30T18:52:52.522Z,11.17
2022-10-30T18:55:19.813Z,14.30
2022-10-30T18:57:47.008Z,13.43
2022-10-30T19:00:16.463Z,13.47
2022-10-30T19:02:43.709Z,13.23
2022-10-30T19:05:32.305Z,12.60
2022-10-30T19:08:01.463Z,12.83
2022-10-30T19:10:30.629Z,12.37
2022-10-30T19:13:15.566Z,12.80
2022-10-30T19:15:46.339Z,12.43
2022-10-30T19:18:13.943Z,13.80
2022-10-30T19:21:03.335Z,14.23
2022-10-30T19:23:28.730Z,14.43
2022-10-30T19:25:56.002Z,15.20
2022-10-30T19:28:23.332Z,14.47
2022-10-30T19:30:50.491Z,14.40
2022-10-30T19:33:18.945Z,15.30
2022-10-30T19:35:46.411Z,15.13
2022-10-30T19:38:14.368Z,13.47
2022-10-30T19:40:41.266Z,13.20
2022-10-30T19:43:08.613Z,13.70
2022-10-30T19:45:35.832Z,12.97
2022-10-30T19:48:24.855Z,13.33
2022-10-30T19:51:01.721Z,14.17
2022-10-30T19:53:28.871Z,14.73
2022-10-30T19:55:56.115Z,13.20
2022-10-30T19:58:25.945Z,13.60
2022-10-30T20:00:56.352Z,13.73
2022-10-30T20:03:23.590Z,14.40
2022-10-30T20:05:50.950Z,14.30
2022-10-30T20:08:18.054Z,13.90
2022-10-30T20:10:50.528Z,14.73
2022-10-30T20:13:17.892Z,15.40
2022-10-30T20:16:16.899Z,14.00
2022-10-30T20:18:44.046Z,14.43
2022-10-30T20:23:52.640Z,15.27
2022-10-30T20:26:28.161Z,15.13
2022-10-30T20:28:55.508Z,15.17
2022-10-30T20:31:22.437Z,13.40
2022-10-30T20:33:51.042Z,13.37
2022-10-30T20:36:20.104Z,14.10
2022-10-30T20:38:47.269Z,14.40
2022-10-30T20:41:23.494Z,13.50
2022-10-30T20:43:50.596Z,14.07
2022-10-30T20:46:18.286Z,14.63
2022-10-30T20:48:47.564Z,14.30
2022-10-30T20:51:14.496Z,13.30
2022-10-30T20:53:41.417Z,21.60
2022-10-30T20:56:08.274Z,12.67
2022-10-30T20:58:35.174Z,11.63
2022-10-30T21:01:02.514Z,11.43
2022-10-30T21:03:29.692Z,11.73
2022-10-30T21:05:58.640Z,11.30
2022-10-30T21:08:26.663Z,11.20
2022-10-30T21:14:47.534Z,10.77
2022-10-30T21:17:14.689Z,10.73
2022-10-30T21:19:41.826Z,10.20
2022-10-30T21:22:11.716Z,10.63
2022-10-30T21:24:38.859Z,9.93
2022-10-30T21:27:06.184Z,10.80
2022-10-30T21:29:35.143Z,10.40
2022-10-30T21:32:02.488Z,10.30
2022-10-30T21:34:29.633Z,10.57
2022-10-30T21:36:56.362Z,10.10
2022-10-30T21:39:23.508Z,10.90
2022-10-30T21:41:50.324Z,10.33
2022-10-30T21:44:17.472Z,10.87
2022-10-30T21:46:44.228Z,10.87
2022-10-30T21:49:17.893Z,9.90
2022-10-30T21:51:45.624Z,10.83
2022-10-30T21:54:12.604Z,11.90
2022-10-30T21:56:39.727Z,11.40
2022-10-30T21:59:06.926Z,11.37
2022-10-30T22:01:36.208Z,11.43
2022-10-30T23:00:54.624Z,12.10
2022-10-30T23:03:21.332Z,12.23
2022-10-30T23:05:59.443Z,12.30
2022-10-30T23:08:26.791Z,12.33
2022-10-30T23:10:54.394Z,12.20
2022-10-30T23:15:48.865Z,12.97
2022-10-30T23:18:16.103Z,11.30
2022-10-30T23:20:44.158Z,11.90
2022-10-30T23:23:11.026Z,12.13
2022-10-30T23:25:38.306Z,12.60
2022-10-30T23:28:09.890Z,11.67
2022-10-30T23:30:37.654Z,12.30
2022-10-30T23:33:04.942Z,12.43
2022-10-30T23:35:32.055Z,11.77
2022-10-30T23:37:58.780Z,12.60
2022-10-30T23:40:25.886Z,11.80
2022-10-30T23:42:55.797Z,12.77
2022-10-30T23:45:22.988Z,12.80
2022-10-30T23:47:49.714Z,13.27
2022-10-30T23:50:16.567Z,13.80
2022-10-30T23:52:43.355Z,13.37
2022-10-30T23:55:10.352Z,15.43
2022-10-30T23:57:37.119Z,14.23
